Tropical Cyclones
[Index]
Season 2020-2021 Tropical Cyclone YASA Track Map
Season 2020-2021 Summaries (Operational Data): [AU] [SIO] [SPAC] [SH]
<<- Previous TC | 2020-2021 Season | Next TC ->>

click for intensity scale information  Lat/long Grid: Show Hide

 Date Labels: Show Hide

Operational Tropical Cyclone Data

Name: YASA
Number: 2105

08 Dec 2020 18:00 UTC to 23 Dec 2020 18:00 UTC

    date/time    lat    long     hPa   cat  kts
2020-12-08 18   13.5   174.3    1010         15          
2020-12-09 00   13.5   173.4    1010         15          
2020-12-09 06   13.5   172.5    1010         15          
2020-12-09 12   14.0   171.5    1010         15          
2020-12-09 18   14.2   170.2    1010         15          
2020-12-10 00   10.8   169.5    1010         15          
2020-12-10 06   10.9   169.9    1002         20          
2020-12-10 12   11.0   170.3    1004         20          
2020-12-10 18   12.0   168.3    1002         20          
2020-12-11 00   12.2   168.6    1001         20          
2020-12-11 06   12.4   168.8    1001         20          
2020-12-11 12   12.5   169.0    1002         20          
2020-12-11 18   12.6   169.9    1001         20          
2020-12-12 00   11.8   171.3    1003         20          
2020-12-12 06   12.3   172.5    1000         25          
2020-12-12 12   13.4   173.3    1000         30          
2020-12-12 18   14.2   173.7     998         30          
2020-12-13 00   15.1   173.3     998    1    35          
2020-12-13 06   15.4   172.9     993    1    40          
2020-12-13 12   15.6   172.6     995    1    40          
2020-12-13 18   15.7   172.3     990    2    50          
2020-12-14 00   15.8   171.9     987    2    55          
2020-12-14 06   15.7   171.8     984    2    55          
2020-12-14 12   15.5   171.9     982    2    55          
2020-12-14 18   15.2   172.2     971    3    70          
2020-12-15 00   15.0   172.5     968    3    75          
2020-12-15 06   14.9   172.7     944    4    95          
2020-12-15 12   14.8   173.1     937    4   105          
2020-12-15 18   14.7   173.5     919    5   120          
2020-12-16 00   14.6   174.1     914    5   125          
2020-12-16 06   15.0   175.0     914    5   125          
2020-12-16 12   15.2   175.6     915    5   125          
2020-12-16 18   15.5   176.7     918    5   120          
2020-12-17 00   16.0   177.7     925    5   115          
2020-12-17 06   16.0   177.7     925    5   115          
2020-12-17 12   17.0   179.7     956    4    90          
2020-12-17 18   17.9   179.4W    967    3    75          
2020-12-18 00   18.3   178.9W    975    3    65          
2020-12-18 06   19.0   178.2W    977    2    60          
2020-12-18 12   19.5   178.0W    980    2    55          
2020-12-18 18   20.3   178.0W    987    2    50          
2020-12-19 00   20.9   178.0W    971    1    40          
2020-12-19 06   21.4   178.0W    987    1    45          
2020-12-19 12   22.1   177.8W    987    1    45          
2020-12-19 18   22.8   177.8W    988    1    45          
2020-12-20 00   23.3   178.1W    985    1    45          
2020-12-20 06   23.8   178.4W    989    1    40          
2020-12-20 12   24.1   178.5W    989    1    40          
2020-12-20 18   24.4   178.7W    993    1    35          
2020-12-21 00   24.8   179.0W    996         30          
2020-12-21 06   25.1   179.3W    990         30          
2020-12-21 12   25.7   179.9W    996         30          
2020-12-21 18   26.1   179.5W    996         30          
2020-12-22 00   26.0   179.8    1000         25          
2020-12-22 06   26.3   180.0    1000         25          
2020-12-22 12   26.4   179.9W   1000         25          
2020-12-22 18   27.1   179.9    1000         25          
2020-12-23 00   27.2   179.8    1002         20          
2020-12-23 06   27.5   179.9    1003         20          
2020-12-23 12   27.7   179.9    1003         20          
2020-12-23 18   27.9   179.7W   1005         20          
Winds were reported as (or converted to) 10-min average.

Tropical cyclone tracks developed by Michael Bath using operational warnings and advisories and Google Maps.


Document: tropical_cyclone_yasa.htm
Updated: 7 May 2021
[Australian Severe Weather index] [Copyright Notice] [Email Contacts] [Search This Site] [Privacy Policy]


Main Index Home Page Stock Weather Photos Extreme Storms Discussion Storm News and Storm Chasing Reports Tropical Cyclones / Hurricanes / Typhoons Weather Data and Links Wild Fires / Bushfires Weather Observation Techniques Weather Picture Catalogue Tornado Pictures and Reports Stock Video Footage and DVDs for sale